Terminal Aerodrome Forecast
Issued by NWS

Home | Current Version | Previous Version | Text Only | Print | Product List | Glossary On
Versions: 1 2 3 4 5 6 7 8 9 10 11 12 13 14 15 16 17 18 19 20 21 22 23 24 25 26 27 28 29 30 31 32 33 34 35 36 37 38 39 40 41 42 43
000
FTUS44 KHGX 181605 AAB
TAFLBX
TAF AMD
KLBX 181605Z 1816/1912 09006KT P6SM VCSH SCT025 BKN040 BKN250
      TEMPO 1816/1817 VRB12KT 3SM SHRA BR BKN025
     FM182100 09007KT P6SM VCSH SCT035 BKN100 OVC250
     FM182300 09008KT P6SM FEW020 BKN090 OVC250
     FM190900 09009KT P6SM VCSH SCT010 BKN250 PROB30 1909/1912 SHRA=

USA.gov is the U.S. government's official web portal to all federal, state and local government web resources and services.